createdAt,value
2022-11-23T00:01:33.620Z,68.74
2022-11-23T00:04:11.712Z,69.60
2022-11-23T00:06:39.371Z,68.96
2022-11-23T00:09:06.856Z,69.74
2022-11-23T00:11:37.081Z,70.22
2022-11-23T00:14:05.032Z,69.73
2022-11-23T00:16:32.589Z,70.29
2022-11-23T00:19:01.310Z,70.35
2022-11-23T00:21:32.648Z,70.48
2022-11-23T00:23:59.641Z,70.15
2022-11-23T00:26:26.927Z,70.70
2022-11-23T00:28:54.099Z,70.86
2022-11-23T00:31:27.843Z,71.08
2022-11-23T00:33:56.466Z,71.10
2022-11-23T00:36:26.358Z,69.45
2022-11-23T00:38:58.001Z,69.16
2022-11-23T00:41:27.616Z,69.17
2022-11-23T00:43:54.866Z,68.99
2022-11-23T00:46:25.483Z,69.58
2022-11-23T00:48:54.636Z,68.86
2022-11-23T00:51:28.782Z,70.21
2022-11-23T00:53:56.670Z,70.11
2022-11-23T00:56:25.835Z,70.36
2022-11-23T00:58:55.493Z,70.34
2022-11-23T01:01:26.613Z,71.20
2022-11-23T01:03:58.674Z,70.85
2022-11-23T01:06:39.267Z,70.16
2022-11-23T01:09:21.228Z,70.00
2022-11-23T01:11:49.945Z,69.48
2022-11-23T01:14:17.560Z,70.72
2022-11-23T01:16:44.806Z,71.21
2022-11-23T01:19:18.621Z,71.41
2022-11-23T01:21:49.068Z,71.95
2022-11-23T01:24:19.997Z,71.42
2022-11-23T01:26:52.535Z,70.91
2022-11-23T01:29:21.364Z,70.17
2022-11-23T01:31:48.307Z,69.98
2022-11-23T01:34:16.279Z,69.56
2022-11-23T01:36:44.659Z,71.03
2022-11-23T01:39:12.925Z,70.05
2022-11-23T01:41:43.785Z,70.10
2022-11-23T01:44:32.774Z,70.24
2022-11-23T01:47:06.744Z,69.34
2022-11-23T01:49:47.884Z,69.55
2022-11-23T01:52:23.597Z,70.33
2022-11-23T01:54:56.229Z,71.50
2022-11-23T01:57:32.126Z,70.81
2022-11-23T02:00:01.767Z,70.76
2022-11-23T02:02:48.056Z,71.15
2022-11-23T02:05:18.512Z,72.11
2022-11-23T02:07:48.120Z,71.72
2022-11-23T02:10:16.656Z,70.86
2022-11-23T02:12:43.617Z,70.39
2022-11-23T02:15:12.691Z,69.72
2022-11-23T02:17:42.147Z,69.45
2022-11-23T02:20:18.692Z,69.48
2022-11-23T02:23:03.789Z,68.22
2022-11-23T02:25:45.439Z,68.92
2022-11-23T02:28:26.911Z,68.45
2022-11-23T02:30:55.413Z,68.56
2022-11-23T02:33:25.494Z,68.47
2022-11-23T02:35:56.124Z,68.25
2022-11-23T02:38:28.712Z,68.24
2022-11-23T02:40:57.582Z,68.27
2022-11-23T02:43:25.706Z,68.86
2022-11-23T02:45:59.684Z,68.27
2022-11-23T02:48:26.993Z,68.53
2022-11-23T02:50:54.806Z,68.45
2022-11-23T02:53:22.105Z,69.14
2022-11-23T02:55:49.112Z,69.13
2022-11-23T03:03:08.259Z,68.06
2022-11-23T03:05:37.603Z,68.23
2022-11-23T03:08:06.600Z,68.45
2022-11-23T03:10:34.580Z,68.35
2022-11-23T03:13:02.048Z,67.47
2022-11-23T03:15:33.203Z,68.10
2022-11-23T03:18:02.667Z,67.63
2022-11-23T03:20:30.616Z,67.35
2022-11-23T03:22:58.560Z,67.69
2022-11-23T03:25:26.811Z,67.64
2022-11-23T03:27:56.291Z,68.62
2022-11-23T03:30:23.800Z,68.24
2022-11-23T03:32:50.865Z,68.32
2022-11-23T03:35:19.141Z,68.92
2022-11-23T03:38:09.700Z,67.74
2022-11-23T03:40:36.758Z,68.88
2022-11-23T03:43:22.488Z,68.78
2022-11-23T03:45:49.522Z,69.28
2022-11-23T03:48:18.202Z,69.18
2022-11-23T03:50:45.906Z,69.39
2022-11-23T03:53:13.363Z,68.61
2022-11-23T03:55:40.507Z,68.04
2022-11-23T03:58:07.508Z,67.87
2022-11-23T04:00:36.330Z,67.19
2022-11-23T04:03:04.612Z,68.11
2022-11-23T04:05:50.025Z,68.64
2022-11-23T04:09:00.383Z,67.61
2022-11-23T04:11:48.142Z,67.35
2022-11-23T04:14:15.145Z,67.78
2022-11-23T04:16:42.736Z,67.79
2022-11-23T04:19:11.008Z,68.13
2022-11-23T04:21:38.128Z,67.96
2022-11-23T04:24:05.648Z,68.65
2022-11-23T04:26:34.567Z,69.77
2022-11-23T04:29:02.621Z,68.55
2022-11-23T04:31:30.972Z,68.14
2022-11-23T04:34:09.427Z,66.71
2022-11-23T04:36:36.944Z,66.70
2022-11-23T04:39:04.168Z,67.76
2022-11-23T04:41:41.693Z,68.15
2022-11-23T04:44:09.563Z,67.15
2022-11-23T04:46:36.912Z,67.46
2022-11-23T04:49:10.077Z,67.21
2022-11-23T04:51:38.081Z,67.62
2022-11-23T04:54:05.519Z,67.93
2022-11-23T04:56:41.052Z,67.58
2022-11-23T04:59:08.922Z,69.09
2022-11-23T05:01:35.931Z,69.49
2022-11-23T05:04:35.225Z,69.68
2022-11-23T05:07:03.027Z,70.75
2022-11-23T05:09:32.460Z,70.01
2022-11-23T05:12:28.818Z,69.84
2022-11-23T05:14:56.172Z,69.05
2022-11-23T05:17:29.847Z,69.69
2022-11-23T05:19:56.998Z,71.20
2022-11-23T05:22:24.628Z,71.03
2022-11-23T05:24:52.315Z,70.66
2022-11-23T05:27:22.272Z,70.67
2022-11-23T05:29:50.143Z,71.97
2022-11-23T05:32:17.349Z,70.83
2022-11-23T05:34:45.035Z,71.48
2022-11-23T05:37:15.118Z,73.28
2022-11-23T05:39:57.243Z,73.79
2022-11-23T05:42:24.703Z,72.89
2022-11-23T05:44:55.221Z,72.45
2022-11-23T05:47:28.663Z,72.15
2022-11-23T05:49:56.054Z,72.01
2022-11-23T05:52:27.024Z,72.95
2022-11-23T05:54:55.037Z,71.98
2022-11-23T05:57:23.235Z,73.34
2022-11-23T05:59:51.437Z,73.80
2022-11-23T06:02:23.024Z,73.51
2022-11-23T06:04:54.700Z,73.18
2022-11-23T06:07:29.244Z,73.22
2022-11-23T06:10:03.724Z,72.72
2022-11-23T06:12:33.000Z,71.59
2022-11-23T06:15:00.809Z,72.72
2022-11-23T06:17:29.740Z,71.17
2022-11-23T06:20:02.307Z,71.92
2022-11-23T06:22:29.549Z,70.55
2022-11-23T06:25:04.266Z,71.78
2022-11-23T06:27:39.791Z,69.21
2022-11-23T06:30:22.046Z,71.68
2022-11-23T06:32:48.997Z,72.81
2022-11-23T06:35:18.328Z,74.55
2022-11-23T06:37:55.366Z,75.83
2022-11-23T06:40:22.972Z,74.80
2022-11-23T06:42:50.480Z,73.82
2022-11-23T06:45:22.647Z,73.77
2022-11-23T06:47:56.604Z,75.65
2022-11-23T06:50:24.360Z,75.34
2022-11-23T06:52:58.242Z,74.45
2022-11-23T06:55:36.732Z,74.55
2022-11-23T06:58:07.474Z,74.82
2022-11-23T07:00:34.785Z,74.59
2022-11-23T07:03:03.354Z,73.68
2022-11-23T07:05:40.464Z,74.72
2022-11-23T07:08:11.030Z,73.96
2022-11-23T07:10:40.208Z,74.50
2022-11-23T07:13:13.240Z,75.56
2022-11-23T07:15:42.486Z,76.96
2022-11-23T07:18:12.065Z,74.69
2022-11-23T07:20:43.295Z,73.69
2022-11-23T07:23:14.914Z,73.89
2022-11-23T07:25:42.338Z,75.49
2022-11-23T07:28:11.847Z,73.78
2022-11-23T07:30:44.168Z,73.84
2022-11-23T07:33:13.104Z,72.98
2022-11-23T07:35:41.638Z,72.94
2022-11-23T07:38:10.109Z,73.16
2022-11-23T07:40:39.006Z,73.80
2022-11-23T07:43:11.235Z,73.76
2022-11-23T07:45:38.655Z,72.13
2022-11-23T07:48:09.907Z,74.38
2022-11-23T07:50:38.887Z,74.85
2022-11-23T07:53:07.209Z,72.97
2022-11-23T07:55:34.740Z,72.98
2022-11-23T07:58:01.841Z,72.26
2022-11-23T08:00:31.985Z,71.67
2022-11-23T08:05:47.550Z,72.87
2022-11-23T08:08:14.644Z,71.54
2022-11-23T08:10:46.169Z,72.04
2022-11-23T08:13:15.273Z,73.61
2022-11-23T08:15:42.379Z,73.67
2022-11-23T08:18:10.188Z,72.85
2022-11-23T08:20:37.141Z,72.20
2022-11-23T08:23:04.371Z,71.95
2022-11-23T08:25:31.390Z,72.95
2022-11-23T08:28:02.151Z,73.84
2022-11-23T08:30:31.268Z,73.88
2022-11-23T08:32:58.864Z,72.72
2022-11-23T08:35:26.117Z,73.47
2022-11-23T08:37:53.045Z,73.96
2022-11-23T08:40:25.119Z,73.73
2022-11-23T08:42:53.223Z,74.53
2022-11-23T08:45:20.938Z,71.88
2022-11-23T08:47:49.211Z,70.78
2022-11-23T08:50:16.652Z,69.89
2022-11-23T08:52:43.708Z,69.07
2022-11-23T08:55:11.320Z,70.65
2022-11-23T08:57:40.189Z,70.85
2022-11-23T09:00:08.829Z,70.96
2022-11-23T09:02:35.925Z,70.70
2022-11-23T09:05:04.575Z,69.53
2022-11-23T09:07:32.984Z,69.76
2022-11-23T09:09:59.939Z,69.44
2022-11-23T09:12:26.863Z,70.34
2022-11-23T09:14:54.148Z,69.75
2022-11-23T09:17:21.256Z,67.91
2022-11-23T09:19:50.492Z,70.34
2022-11-23T09:22:17.607Z,70.24
2022-11-23T09:24:44.797Z,70.28
2022-11-23T09:27:11.834Z,68.23
2022-11-23T09:29:38.875Z,68.32
2022-11-23T09:32:05.958Z,68.36
2022-11-23T09:34:33.451Z,67.95
2022-11-23T09:37:01.255Z,66.32
2022-11-23T09:39:28.295Z,65.21
2022-11-23T09:42:24.365Z,64.61
2022-11-23T09:45:28.225Z,61.75
2022-11-23T09:48:02.273Z,63.20
2022-11-23T09:50:48.604Z,62.12
2022-11-23T09:53:22.764Z,61.66
2022-11-23T09:55:54.257Z,64.50
2022-11-23T09:58:26.711Z,60.49
2022-11-23T10:01:16.117Z,61.97
2022-11-23T10:03:48.776Z,59.53
2022-11-23T10:06:22.604Z,59.10
2022-11-23T10:09:27.516Z,61.89
2022-11-23T10:12:08.897Z,60.27
2022-11-23T10:15:15.895Z,59.99
2022-11-23T10:18:22.500Z,58.88
2022-11-23T10:21:08.300Z,58.03
2022-11-23T10:23:56.242Z,56.96
2022-11-23T10:26:40.449Z,58.23
2022-11-23T10:29:31.928Z,55.83
2022-11-23T10:31:59.905Z,57.53
2022-11-23T10:35:07.309Z,54.61
2022-11-23T10:37:34.715Z,52.35
2022-11-23T10:40:01.832Z,53.20
2022-11-23T10:42:38.692Z,52.40
2022-11-23T10:45:06.588Z,53.90
2022-11-23T10:47:49.190Z,53.25
2022-11-23T10:50:37.251Z,53.92
2022-11-23T10:53:26.189Z,54.71
2022-11-23T10:55:59.641Z,51.36
2022-11-23T10:58:53.441Z,54.01
2022-11-23T11:01:26.689Z,49.06
2022-11-23T11:03:56.595Z,49.33
2022-11-23T11:06:31.406Z,51.02
2022-11-23T11:09:03.773Z,49.14
2022-11-23T11:11:34.895Z,48.13
2022-11-23T11:14:06.409Z,51.00
2022-11-23T11:16:36.937Z,49.35
2022-11-23T11:19:33.571Z,51.99
2022-11-23T11:22:05.041Z,51.42
2022-11-23T11:24:59.346Z,52.46
2022-11-23T11:27:30.309Z,50.16
2022-11-23T11:30:20.634Z,53.43
2022-11-23T11:33:16.628Z,53.32
2022-11-23T11:35:49.209Z,48.40
2022-11-23T11:38:32.868Z,47.59
2022-11-23T11:41:08.503Z,48.42
2022-11-23T11:43:48.426Z,52.34
2022-11-23T11:46:32.513Z,48.81
2022-11-23T11:49:44.115Z,47.60
2022-11-23T11:52:22.413Z,49.07
2022-11-23T11:55:01.703Z,49.96
2022-11-23T11:57:40.549Z,49.06
2022-11-23T12:00:16.477Z,48.16
2022-11-23T12:03:03.190Z,47.61
2022-11-23T12:05:46.632Z,47.41
2022-11-23T12:08:40.939Z,47.84
2022-11-23T12:11:12.601Z,49.18
2022-11-23T12:13:44.546Z,47.32
2022-11-23T12:17:04.080Z,50.03
2022-11-23T12:20:08.583Z,47.07
2022-11-23T12:23:17.880Z,47.03
2022-11-23T12:26:14.999Z,48.79
2022-11-23T12:29:04.656Z,49.89
2022-11-23T12:31:49.188Z,51.17
2022-11-23T12:34:53.937Z,48.97
2022-11-23T12:37:58.766Z,47.64
2022-11-23T12:41:03.651Z,51.16
2022-11-23T12:44:08.356Z,51.37
2022-11-23T12:47:15.795Z,49.48
2022-11-23T12:50:18.544Z,49.26
2022-11-23T12:53:13.297Z,51.12
2022-11-23T12:56:07.487Z,50.82
2022-11-23T12:58:37.043Z,51.36
2022-11-23T13:01:16.434Z,52.75
2022-11-23T13:04:12.457Z,49.68
2022-11-23T13:07:40.042Z,52.03
2022-11-23T13:10:31.851Z,50.47
2022-11-23T13:13:48.867Z,49.54
2022-11-23T13:16:32.997Z,49.09
2022-11-23T13:19:33.804Z,51.23
2022-11-23T13:22:02.028Z,49.70
2022-11-23T13:24:34.664Z,48.79
2022-11-23T13:27:31.525Z,53.48
2022-11-23T13:30:07.626Z,54.78
2022-11-23T13:32:40.325Z,54.14
2022-11-23T13:35:16.536Z,51.73
2022-11-23T13:38:00.297Z,51.39
2022-11-23T13:40:32.441Z,51.71
2022-11-23T13:43:16.368Z,51.11
2022-11-23T13:45:44.221Z,53.22
2022-11-23T13:48:19.466Z,53.42
2022-11-23T13:51:00.821Z,50.55
2022-11-23T13:53:35.693Z,49.49
2022-11-23T13:56:30.977Z,51.79
2022-11-23T13:59:18.967Z,51.28
2022-11-23T14:02:08.145Z,50.39
2022-11-23T14:04:43.670Z,50.64
2022-11-23T14:07:35.308Z,50.78
2022-11-23T14:10:23.610Z,49.27
2022-11-23T14:13:12.226Z,50.60
2022-11-23T14:15:44.568Z,52.09
2022-11-23T14:18:43.439Z,51.16
2022-11-23T14:21:31.024Z,49.40
2022-11-23T14:24:25.950Z,51.03
2022-11-23T14:27:46.395Z,49.80
2022-11-23T14:30:36.164Z,51.51
2022-11-23T14:33:16.667Z,50.37
2022-11-23T14:36:17.869Z,50.27
2022-11-23T14:39:33.409Z,50.75
2022-11-23T14:42:05.611Z,50.35
2022-11-23T14:44:38.441Z,51.68
2022-11-23T14:47:08.925Z,51.77
2022-11-23T14:49:37.396Z,53.02
2022-11-23T14:52:05.596Z,51.44
2022-11-23T14:54:32.848Z,52.22
2022-11-23T14:57:04.021Z,52.24
2022-11-23T14:59:38.414Z,53.44
2022-11-23T15:02:17.117Z,56.54
2022-11-23T15:05:03.144Z,58.56
2022-11-23T15:07:51.270Z,60.45
2022-11-23T15:10:51.685Z,56.21
2022-11-23T15:13:26.808Z,59.88
2022-11-23T15:15:56.769Z,59.05
2022-11-23T15:18:40.006Z,58.46
2022-11-23T15:21:28.250Z,57.47
2022-11-23T15:24:00.066Z,60.44
2022-11-23T15:26:47.954Z,59.63
2022-11-23T15:29:33.778Z,57.52
2022-11-23T15:34:51.711Z,56.73
2022-11-23T15:37:19.100Z,61.23
2022-11-23T15:39:47.757Z,64.37
2022-11-23T15:42:19.296Z,65.87
2022-11-23T15:44:50.757Z,64.82
2022-11-23T15:47:38.166Z,66.38
2022-11-23T15:50:09.941Z,67.48
2022-11-23T15:52:38.342Z,69.89
2022-11-23T15:55:12.909Z,72.79
2022-11-23T15:57:41.537Z,71.54
2022-11-23T16:00:21.098Z,72.55
2022-11-23T16:02:48.255Z,72.43
2022-11-23T16:05:22.238Z,72.32
2022-11-23T16:08:01.672Z,73.49
2022-11-23T16:10:31.965Z,73.86
2022-11-23T16:13:05.875Z,73.57
2022-11-23T16:15:38.503Z,74.09
2022-11-23T16:18:17.639Z,74.66
2022-11-23T16:20:47.968Z,74.57
2022-11-23T16:23:25.696Z,74.75
2022-11-23T16:26:05.934Z,74.72
2022-11-23T16:28:36.563Z,74.75
2022-11-23T16:31:04.733Z,75.58
2022-11-23T16:33:32.325Z,75.27
2022-11-23T16:35:59.438Z,74.22
2022-11-23T16:38:26.420Z,74.09
2022-11-23T16:40:53.543Z,74.79
2022-11-23T16:43:21.307Z,75.83
2022-11-23T16:45:51.477Z,76.73
2022-11-23T16:48:25.335Z,76.34
2022-11-23T16:50:57.336Z,76.95
2022-11-23T16:53:26.876Z,76.70
2022-11-23T16:55:54.974Z,77.03
2022-11-23T16:58:22.433Z,75.81
2022-11-23T17:00:49.975Z,76.57
2022-11-23T17:03:19.648Z,75.90
2022-11-23T17:05:48.222Z,76.37
2022-11-23T17:08:21.594Z,77.13
2022-11-23T17:10:51.398Z,76.97
2022-11-23T17:13:27.248Z,76.45
2022-11-23T17:15:55.067Z,76.40
2022-11-23T17:18:22.502Z,75.77
2022-11-23T17:20:49.754Z,77.07
2022-11-23T17:23:16.994Z,76.92
2022-11-23T17:25:44.316Z,77.01
2022-11-23T17:28:21.764Z,77.58
2022-11-23T17:30:49.910Z,77.18
2022-11-23T17:33:17.072Z,76.68
2022-11-23T17:35:45.270Z,77.63
2022-11-23T17:38:26.210Z,77.72
2022-11-23T17:40:53.387Z,77.89
2022-11-23T17:43:20.760Z,78.15
2022-11-23T17:45:48.154Z,78.82
2022-11-23T17:48:16.956Z,78.12
2022-11-23T17:50:44.000Z,79.31
2022-11-23T17:53:11.549Z,79.22
2022-11-23T17:55:39.517Z,78.95
2022-11-23T17:58:06.603Z,78.68
2022-11-23T18:00:35.122Z,79.24
2022-11-23T18:03:02.403Z,79.76
2022-11-23T18:05:29.998Z,80.11
2022-11-23T18:08:18.095Z,80.04
2022-11-23T18:10:45.033Z,80.26
2022-11-23T18:13:11.964Z,80.72
2022-11-23T18:15:38.968Z,81.05
2022-11-23T18:18:06.047Z,80.64
2022-11-23T18:20:33.128Z,80.57
2022-11-23T18:23:00.094Z,80.45
2022-11-23T18:25:27.380Z,80.22
2022-11-23T18:27:54.469Z,80.34
2022-11-23T18:30:21.543Z,79.96
2022-11-23T18:32:48.615Z,80.75
2022-11-23T18:35:15.832Z,81.29
2022-11-23T18:37:42.735Z,80.08
2022-11-23T18:40:10.422Z,79.44
2022-11-23T18:42:40.223Z,80.54
2022-11-23T18:45:08.910Z,79.99
2022-11-23T18:47:35.811Z,79.53
2022-11-23T18:50:06.438Z,80.04
2022-11-23T18:52:33.984Z,79.57
2022-11-23T18:55:01.774Z,79.79
2022-11-23T18:57:28.873Z,79.66
2022-11-23T18:59:58.653Z,79.36
2022-11-23T19:02:26.381Z,79.25
2022-11-23T19:04:53.347Z,80.20
2022-11-23T19:07:25.294Z,79.17
2022-11-23T19:09:54.875Z,80.17
2022-11-23T19:12:21.819Z,79.70
2022-11-23T19:14:49.613Z,79.68
2022-11-23T19:17:17.465Z,80.13
2022-11-23T19:19:44.711Z,79.59
2022-11-23T19:22:11.653Z,79.31
2022-11-23T19:24:38.604Z,79.46
2022-11-23T19:27:05.956Z,80.16
2022-11-23T19:29:32.960Z,78.91
2022-11-23T19:32:00.332Z,79.57
2022-11-23T19:34:27.322Z,79.69
2022-11-23T19:36:54.936Z,80.12
2022-11-23T19:39:23.082Z,80.02
2022-11-23T19:41:50.436Z,80.04
2022-11-23T19:44:17.532Z,81.03
2022-11-23T19:46:44.739Z,81.14
2022-11-23T19:49:12.410Z,80.63
2022-11-23T19:51:39.379Z,81.62
2022-11-23T19:54:06.991Z,82.24
2022-11-23T19:56:37.057Z,81.60
2022-11-23T19:59:04.478Z,81.57
2022-11-23T20:01:32.541Z,81.77
2022-11-23T20:04:08.686Z,80.85
2022-11-23T20:06:42.014Z,80.74
2022-11-23T20:09:22.923Z,80.76
2022-11-23T20:11:51.551Z,80.73
2022-11-23T20:14:19.152Z,79.78
2022-11-23T20:16:47.726Z,80.88
2022-11-23T20:19:14.832Z,80.50
2022-11-23T20:21:41.826Z,79.91
2022-11-23T20:24:14.731Z,79.79
2022-11-23T20:26:42.998Z,79.87
2022-11-23T20:29:10.909Z,80.09
2022-11-23T20:31:38.916Z,80.40
2022-11-23T20:34:07.737Z,81.00
2022-11-23T20:36:38.370Z,79.29
2022-11-23T20:39:10.024Z,80.03
2022-11-23T20:41:38.297Z,79.97
2022-11-23T20:44:11.314Z,79.50
2022-11-23T20:47:01.892Z,79.06
2022-11-23T20:49:26.643Z,78.90
2022-11-23T20:51:53.540Z,79.60
2022-11-23T20:54:20.610Z,79.77
2022-11-23T20:56:47.591Z,79.30
2022-11-23T20:59:14.754Z,78.97
2022-11-23T21:01:41.736Z,78.73
2022-11-23T21:04:09.156Z,79.49
2022-11-23T21:06:39.442Z,78.63
2022-11-23T21:09:09.553Z,79.09
2022-11-23T21:11:56.166Z,78.14
2022-11-23T21:14:27.665Z,78.14
2022-11-23T21:16:59.259Z,79.16
2022-11-23T21:19:39.489Z,78.59
2022-11-23T21:22:09.387Z,78.25
2022-11-23T21:24:37.490Z,78.78
2022-11-23T21:27:06.871Z,79.43
2022-11-23T21:29:34.817Z,78.22
2022-11-23T21:32:01.785Z,78.06
2022-11-23T21:34:30.718Z,78.31
2022-11-23T21:36:58.789Z,77.44
2022-11-23T21:39:25.800Z,78.54
2022-11-23T21:41:54.218Z,78.16
2022-11-23T21:44:22.783Z,78.60
2022-11-23T21:46:50.240Z,78.24
2022-11-23T21:49:17.243Z,78.53
2022-11-23T21:51:45.590Z,79.30
2022-11-23T21:54:16.476Z,78.99
2022-11-23T21:56:45.581Z,78.65
2022-11-23T21:59:13.389Z,79.14
2022-11-23T22:01:40.790Z,78.68
2022-11-23T22:04:15.273Z,78.57
2022-11-23T22:06:44.550Z,78.66
2022-11-23T22:09:12.787Z,78.62
2022-11-23T22:11:43.277Z,78.35
2022-11-23T22:14:14.263Z,77.48
2022-11-23T22:16:45.200Z,77.47
2022-11-23T22:19:14.893Z,76.69
2022-11-23T22:21:44.578Z,77.09
2022-11-23T22:24:17.648Z,76.84
2022-11-23T22:26:45.690Z,76.73
2022-11-23T22:29:13.235Z,77.00
2022-11-23T22:31:40.949Z,76.38
2022-11-23T22:34:11.575Z,77.26
2022-11-23T22:36:38.577Z,77.11
2022-11-23T22:39:06.885Z,77.09
2022-11-23T22:41:36.770Z,77.36
2022-11-23T22:44:07.146Z,78.40
2022-11-23T22:46:34.377Z,78.06
2022-11-23T22:49:02.060Z,78.47
2022-11-23T22:51:29.924Z,79.21
2022-11-23T22:53:59.785Z,79.04
2022-11-23T22:56:28.743Z,79.94
2022-11-23T22:58:56.042Z,79.27
2022-11-23T23:01:26.718Z,79.08
2022-11-23T23:03:56.379Z,78.48
2022-11-23T23:06:27.428Z,78.69
2022-11-23T23:08:57.330Z,78.24
2022-11-23T23:11:27.082Z,78.10
2022-11-23T23:13:54.499Z,77.88
2022-11-23T23:16:22.149Z,78.49
2022-11-23T23:18:49.373Z,78.60
2022-11-23T23:21:20.162Z,79.20
2022-11-23T23:23:53.662Z,79.62
2022-11-23T23:26:24.134Z,79.61
2022-11-23T23:29:01.367Z,79.63
2022-11-23T23:31:30.062Z,79.28
2022-11-23T23:33:58.635Z,79.20
2022-11-23T23:36:25.915Z,78.43
2022-11-23T23:38:53.458Z,79.94
2022-11-23T23:41:20.959Z,79.77
2022-11-23T23:43:48.348Z,79.61
2022-11-23T23:46:16.034Z,79.16
2022-11-23T23:48:43.191Z,79.36
2022-11-23T23:51:23.515Z,78.64
2022-11-23T23:53:51.758Z,78.93
2022-11-23T23:56:28.917Z,77.96
2022-11-23T23:58:57.786Z,78.26
